createdAt,value
2024-05-09T00:00:36.187Z,9.30
2024-05-09T00:03:08.389Z,8.43
2024-05-09T00:05:36.801Z,9.32
2024-05-09T00:08:04.375Z,8.93
2024-05-09T00:10:36.381Z,9.45
2024-05-09T00:13:05.966Z,9.30
2024-05-09T00:15:33.831Z,8.10
2024-05-09T00:18:01.112Z,8.02
2024-05-09T00:20:33.508Z,7.68
2024-05-09T00:23:07.283Z,8.50
2024-05-09T00:25:34.227Z,7.78
2024-05-09T00:28:00.940Z,7.43
2024-05-09T00:30:33.735Z,7.47
2024-05-09T00:33:03.191Z,8.27
2024-05-09T00:35:30.383Z,7.47
2024-05-09T00:37:57.147Z,7.38
2024-05-09T00:40:35.046Z,8.10
2024-05-09T00:43:06.087Z,7.25
2024-05-09T00:45:33.959Z,6.82
2024-05-09T00:48:03.196Z,7.20
2024-05-09T00:50:36.110Z,7.70
2024-05-09T00:53:06.038Z,7.40
2024-05-09T00:55:34.888Z,7.97
2024-05-09T00:58:03.089Z,6.97
2024-05-09T01:00:37.832Z,7.22
2024-05-09T01:03:07.328Z,6.40
2024-05-09T01:05:35.043Z,7.20
2024-05-09T01:08:03.042Z,6.43
2024-05-09T01:10:34.475Z,6.50
2024-05-09T01:13:06.703Z,6.40
2024-05-09T01:15:35.058Z,6.25
2024-05-09T01:18:07.620Z,4.97
2024-05-09T01:20:41.282Z,5.68
2024-05-09T01:23:11.625Z,6.20
2024-05-09T01:25:38.636Z,6.03
2024-05-09T01:28:06.316Z,6.03
2024-05-09T01:30:35.896Z,6.10
2024-05-09T01:33:06.785Z,6.35
2024-05-09T01:35:35.282Z,6.32
2024-05-09T01:38:02.211Z,6.07
2024-05-09T01:40:36.709Z,5.40
2024-05-09T01:43:06.118Z,5.97
2024-05-09T01:45:32.953Z,5.43
2024-05-09T01:47:59.884Z,6.15
2024-05-09T01:50:37.385Z,5.95
2024-05-09T01:53:08.796Z,6.13
2024-05-09T01:55:35.738Z,5.90
2024-05-09T01:58:02.400Z,6.93
2024-05-09T02:00:37.385Z,5.72
2024-05-09T02:03:10.195Z,6.32
2024-05-09T02:05:37.769Z,6.72
2024-05-09T02:08:05.597Z,6.63
2024-05-09T02:10:33.399Z,6.82
2024-05-09T02:13:00.490Z,6.35
2024-05-09T02:15:27.116Z,6.38
2024-05-09T02:17:54.081Z,6.10
2024-05-09T02:20:30.183Z,6.93
2024-05-09T02:23:05.086Z,6.30
2024-05-09T02:25:32.789Z,6.47
2024-05-09T02:27:59.668Z,6.63
2024-05-09T02:30:36.227Z,6.35
2024-05-09T02:33:07.907Z,6.10
2024-05-09T02:35:35.263Z,5.70
2024-05-09T02:38:02.062Z,6.80
2024-05-09T02:40:36.150Z,6.10
2024-05-09T02:43:05.849Z,6.05
2024-05-09T02:45:32.860Z,5.67
2024-05-09T02:47:59.765Z,5.85
2024-05-09T02:50:34.356Z,5.72
2024-05-09T02:53:05.701Z,5.65
2024-05-09T02:55:32.770Z,6.82
2024-05-09T02:57:59.559Z,5.50
2024-05-09T03:00:34.825Z,5.75
2024-05-09T03:03:08.459Z,5.30
2024-05-09T03:05:36.691Z,5.25
2024-05-09T03:08:04.156Z,6.13
2024-05-09T03:10:35.965Z,6.07
2024-05-09T03:13:09.178Z,5.80
2024-05-09T03:15:36.376Z,5.68
2024-05-09T03:18:04.551Z,5.72
2024-05-09T03:20:34.862Z,6.05
2024-05-09T03:23:03.880Z,5.83
2024-05-09T03:25:30.813Z,5.85
2024-05-09T03:27:57.375Z,4.95
2024-05-09T03:30:35.956Z,4.38
2024-05-09T03:33:15.347Z,4.78
2024-05-09T03:35:46.211Z,5.07
2024-05-09T03:38:13.185Z,4.63
2024-05-09T03:40:47.494Z,3.83
2024-05-09T03:43:14.662Z,3.63
2024-05-09T03:45:45.108Z,3.55
2024-05-09T03:48:12.129Z,2.87
2024-05-09T03:50:39.214Z,3.00
2024-05-09T03:53:09.457Z,2.78
2024-05-09T03:55:36.171Z,3.10
2024-05-09T03:58:02.790Z,3.38
2024-05-09T04:00:36.939Z,3.40
2024-05-09T04:03:11.005Z,2.95
2024-05-09T04:05:40.831Z,2.72
2024-05-09T04:08:08.931Z,2.60
2024-05-09T04:10:35.878Z,2.50
2024-05-09T04:13:03.674Z,2.73
2024-05-09T04:15:30.813Z,2.67
2024-05-09T04:17:57.793Z,2.10
2024-05-09T04:20:34.251Z,2.10
2024-05-09T04:23:06.845Z,2.00
2024-05-09T04:25:33.977Z,1.90
2024-05-09T04:28:00.649Z,2.35
2024-05-09T04:30:36.343Z,1.80
2024-05-09T04:33:07.061Z,1.80
2024-05-09T04:35:35.035Z,2.00
2024-05-09T04:38:01.686Z,1.90
2024-05-09T04:40:33.652Z,1.60
2024-05-09T04:43:03.978Z,1.60
2024-05-09T04:45:30.788Z,2.17
2024-05-09T04:47:57.840Z,1.50
2024-05-09T04:50:33.189Z,1.83
2024-05-09T04:53:04.008Z,1.70
2024-05-09T04:55:30.722Z,1.90
2024-05-09T04:57:57.632Z,1.67
2024-05-09T05:00:32.496Z,1.60
2024-05-09T05:03:07.051Z,1.60
2024-05-09T05:05:37.289Z,1.70
2024-05-09T05:08:04.091Z,1.92
2024-05-09T05:10:35.872Z,1.80
2024-05-09T05:13:18.007Z,1.80
2024-05-09T05:16:03.540Z,1.87
2024-05-09T05:18:30.314Z,1.80
2024-05-09T05:20:58.593Z,1.80
2024-05-09T05:23:25.465Z,1.80
2024-05-09T05:25:53.364Z,2.20
2024-05-09T05:28:20.793Z,1.83
2024-05-09T05:30:47.565Z,1.92
2024-05-09T05:33:16.032Z,1.70
2024-05-09T05:35:42.963Z,1.83
2024-05-09T05:38:10.796Z,1.67
2024-05-09T05:40:38.710Z,2.03
2024-05-09T05:43:10.459Z,1.92
2024-05-09T05:45:37.900Z,1.83
2024-05-09T05:48:06.526Z,2.00
2024-05-09T05:50:36.938Z,1.50
2024-05-09T05:53:06.731Z,1.70
2024-05-09T05:55:33.714Z,1.80
2024-05-09T05:58:01.961Z,1.92
2024-05-09T06:00:34.988Z,1.58
2024-05-09T06:03:05.837Z,2.47
2024-05-09T06:05:32.944Z,1.50
2024-05-09T06:07:59.746Z,2.10
2024-05-09T06:10:34.898Z,2.00
2024-05-09T06:13:05.605Z,1.88
2024-05-09T06:15:32.278Z,2.17
2024-05-09T06:17:59.471Z,2.40
2024-05-09T06:20:34.727Z,2.05
2024-05-09T06:23:04.405Z,2.00
2024-05-09T06:25:31.391Z,2.33
2024-05-09T06:27:57.966Z,1.98
2024-05-09T06:30:30.965Z,2.30
2024-05-09T06:33:06.060Z,1.70
2024-05-09T06:35:33.643Z,1.40
2024-05-09T06:38:00.852Z,1.58
2024-05-09T06:40:36.233Z,1.40
2024-05-09T06:43:05.671Z,1.53
2024-05-09T06:45:32.311Z,1.38
2024-05-09T06:47:59.316Z,1.58
2024-05-09T06:50:28.644Z,1.50
2024-05-09T06:53:02.398Z,1.90
2024-05-09T06:55:29.202Z,1.50
2024-05-09T06:57:55.934Z,1.73
2024-05-09T07:00:30.281Z,1.60
2024-05-09T07:03:12.290Z,1.50
2024-05-09T07:05:40.474Z,2.03
2024-05-09T07:08:07.451Z,1.67
2024-05-09T07:10:36.106Z,1.70
2024-05-09T07:13:07.849Z,1.80
2024-05-09T07:15:34.396Z,1.50
2024-05-09T07:18:01.240Z,1.50
2024-05-09T07:20:34.170Z,1.73
2024-05-09T07:23:03.138Z,1.52
2024-05-09T07:25:30.309Z,1.80
2024-05-09T07:27:57.099Z,1.48
2024-05-09T07:30:32.550Z,1.67
2024-05-09T07:33:01.462Z,1.70
2024-05-09T07:35:28.812Z,1.40
2024-05-09T07:37:55.596Z,1.60
2024-05-09T07:40:31.698Z,1.60
2024-05-09T07:43:07.288Z,1.35
2024-05-09T07:52:23.584Z,1.42
2024-05-09T07:53:38.730Z,1.33
2024-05-09T07:56:09.094Z,1.75
2024-05-09T07:58:36.603Z,1.33
2024-05-09T08:01:03.374Z,1.85
2024-05-09T08:03:30.542Z,1.30
2024-05-09T08:05:57.251Z,1.73
2024-05-09T08:08:23.834Z,1.50
2024-05-09T08:10:51.330Z,1.80
2024-05-09T08:13:18.057Z,1.60
2024-05-09T08:15:44.959Z,1.73
2024-05-09T08:18:12.939Z,1.48
2024-05-09T08:20:41.428Z,1.75
2024-05-09T08:23:08.291Z,1.90
2024-05-09T08:25:34.880Z,2.00
2024-05-09T08:28:01.551Z,2.10
2024-05-09T08:30:33.800Z,2.20
2024-05-09T08:33:04.633Z,2.17
2024-05-09T08:35:31.855Z,1.37
2024-05-09T08:37:58.641Z,1.95
2024-05-09T08:40:32.931Z,2.20
2024-05-09T08:43:02.873Z,1.92
2024-05-09T08:45:30.208Z,2.20
2024-05-09T08:48:01.516Z,1.87
2024-05-09T08:50:35.937Z,1.90
2024-05-09T08:53:06.059Z,2.00
2024-05-09T08:55:32.916Z,2.13
2024-05-09T08:58:02.720Z,1.70
2024-05-09T09:00:36.804Z,2.03
2024-05-09T09:03:07.238Z,2.00
2024-05-09T09:05:38.057Z,1.85
2024-05-09T09:08:07.314Z,1.88
2024-05-09T09:10:34.083Z,1.80
2024-05-09T09:13:05.107Z,1.90
2024-05-09T09:15:34.972Z,2.00
2024-05-09T09:18:01.910Z,2.20
2024-05-09T09:20:35.880Z,1.92
2024-05-09T09:23:04.551Z,1.90
2024-05-09T09:25:31.851Z,2.00
2024-05-09T09:27:58.964Z,2.05
2024-05-09T09:30:36.247Z,1.90
2024-05-09T09:33:06.067Z,2.30
2024-05-09T09:35:33.152Z,2.05
2024-05-09T09:38:03.328Z,2.30
2024-05-09T09:40:42.399Z,2.42
2024-05-09T09:43:18.600Z,2.58
2024-05-09T09:45:46.906Z,2.15
2024-05-09T09:48:15.317Z,2.15
2024-05-09T09:50:43.187Z,2.33
2024-05-09T09:53:11.405Z,2.00
2024-05-09T09:55:39.827Z,2.47
2024-05-09T09:58:09.573Z,2.30
2024-05-09T10:00:38.601Z,2.15
2024-05-09T10:03:05.500Z,2.07
2024-05-09T10:05:33.724Z,2.53
2024-05-09T10:08:05.148Z,2.30
2024-05-09T10:10:34.169Z,2.00
2024-05-09T10:13:04.555Z,3.17
2024-05-09T10:15:46.204Z,2.37
2024-05-09T10:18:13.450Z,2.05
2024-05-09T10:20:49.348Z,2.10
2024-05-09T10:23:33.597Z,2.13
2024-05-09T10:26:05.510Z,1.90
2024-05-09T10:28:34.108Z,2.27
2024-05-09T10:31:07.533Z,2.55
2024-05-09T10:33:46.207Z,2.50
2024-05-09T10:36:14.761Z,2.17
2024-05-09T10:38:43.019Z,2.38
2024-05-09T10:41:10.771Z,2.40
2024-05-09T10:43:39.818Z,2.00
2024-05-09T10:46:07.690Z,2.15
2024-05-09T10:48:36.008Z,2.00
2024-05-09T10:51:03.104Z,2.10
2024-05-09T10:53:31.145Z,2.00
2024-05-09T10:56:01.678Z,2.00
2024-05-09T10:58:28.509Z,1.83
2024-05-09T11:00:58.341Z,2.10
2024-05-09T11:03:25.274Z,1.83
2024-05-09T11:05:52.981Z,1.60
2024-05-09T11:08:23.975Z,2.00
2024-05-09T11:10:52.714Z,1.90
2024-05-09T11:13:33.067Z,1.90
2024-05-09T11:16:00.774Z,1.88
2024-05-09T11:18:32.187Z,1.77
2024-05-09T11:21:02.023Z,2.05
2024-05-09T11:23:32.235Z,2.00
2024-05-09T11:25:59.169Z,1.73
2024-05-09T11:28:28.798Z,1.80
2024-05-09T11:31:06.695Z,1.80
2024-05-09T11:33:37.640Z,1.83
2024-05-09T11:36:05.339Z,1.83
2024-05-09T11:38:32.560Z,1.98
2024-05-09T11:40:59.208Z,1.90
2024-05-09T11:43:25.801Z,2.10
2024-05-09T11:45:52.500Z,1.90
2024-05-09T11:48:19.331Z,1.75
2024-05-09T11:50:46.109Z,1.80
2024-05-09T11:53:12.696Z,1.90
2024-05-09T11:55:39.290Z,1.70
2024-05-09T11:58:06.141Z,1.60
2024-05-09T12:00:36.987Z,1.75
2024-05-09T12:03:05.771Z,1.95
2024-05-09T12:05:33.347Z,1.90
2024-05-09T12:08:00.867Z,1.83
2024-05-09T12:10:33.208Z,1.52
2024-05-09T12:13:03.981Z,1.98
2024-05-09T12:15:32.411Z,1.98
2024-05-09T12:18:02.530Z,1.75
2024-05-09T12:20:36.617Z,1.80
2024-05-09T12:23:06.566Z,1.90
2024-05-09T12:25:36.132Z,1.90
2024-05-09T12:28:03.123Z,2.00
2024-05-09T12:30:36.571Z,2.10
2024-05-09T12:33:08.594Z,1.70
2024-05-09T12:35:35.635Z,2.10
2024-05-09T12:38:03.064Z,1.92
2024-05-09T12:42:59.279Z,1.90
2024-05-09T12:45:25.862Z,1.87
2024-05-09T12:47:52.574Z,2.15
2024-05-09T12:50:28.786Z,1.88
2024-05-09T12:52:58.421Z,1.95
2024-05-09T12:55:25.058Z,1.90
2024-05-09T12:57:51.673Z,1.80
2024-05-09T13:00:24.022Z,2.00
2024-05-09T13:02:57.851Z,2.00
2024-05-09T13:05:24.750Z,1.88
2024-05-09T13:07:51.510Z,1.80
2024-05-09T13:10:28.690Z,1.77
2024-05-09T13:12:59.271Z,1.98
2024-05-09T13:15:26.028Z,1.70
2024-05-09T13:17:52.879Z,2.08
2024-05-09T13:20:28.890Z,1.83
2024-05-09T13:23:01.466Z,2.10
2024-05-09T13:25:28.067Z,2.40
2024-05-09T13:27:55.011Z,2.35
2024-05-09T13:30:29.345Z,2.20
2024-05-09T13:33:05.162Z,2.20
2024-05-09T13:35:32.336Z,2.37
2024-05-09T13:37:59.068Z,2.13
2024-05-09T13:40:32.705Z,2.60
2024-05-09T13:43:02.173Z,2.35
2024-05-09T13:45:29.039Z,2.50
2024-05-09T13:47:55.860Z,2.30
2024-05-09T13:50:31.105Z,2.45
2024-05-09T13:53:01.941Z,2.67
2024-05-09T13:55:28.711Z,2.70
2024-05-09T13:57:55.630Z,2.65
2024-05-09T14:00:32.105Z,3.10
2024-05-09T14:03:09.394Z,2.55
2024-05-09T14:05:36.308Z,3.13
2024-05-09T14:08:04.522Z,2.72
2024-05-09T14:10:32.376Z,2.92
2024-05-09T14:13:00.742Z,2.97
2024-05-09T14:15:27.770Z,2.60
2024-05-09T14:17:55.409Z,3.10
2024-05-09T14:20:30.387Z,2.90
2024-05-09T14:22:59.309Z,2.90
2024-05-09T14:25:28.391Z,3.13
2024-05-09T14:27:56.068Z,2.60
2024-05-09T14:30:30.649Z,2.72
2024-05-09T14:33:03.471Z,2.85
2024-05-09T14:35:30.258Z,2.85
2024-05-09T14:37:56.927Z,2.40
2024-05-09T14:40:36.634Z,3.30
2024-05-09T14:43:08.493Z,2.60
2024-05-09T14:45:35.520Z,2.53
2024-05-09T14:48:03.727Z,2.60
2024-05-09T14:50:36.100Z,2.87
2024-05-09T14:53:07.096Z,2.85
2024-05-09T14:55:36.899Z,2.60
2024-05-09T14:58:06.830Z,2.92
2024-05-09T15:00:36.602Z,2.75
2024-05-09T15:03:05.531Z,2.77
2024-05-09T15:05:32.248Z,3.05
2024-05-09T15:07:59.456Z,3.20
2024-05-09T15:10:33.982Z,2.85
2024-05-09T15:13:04.304Z,2.65
2024-05-09T15:15:31.177Z,2.87
2024-05-09T15:17:58.060Z,2.63
2024-05-09T15:20:32.979Z,3.00
2024-05-09T15:23:02.813Z,2.67
2024-05-09T15:25:29.728Z,2.97
2024-05-09T15:27:56.710Z,3.00
2024-05-09T15:30:30.724Z,2.83
2024-05-09T15:33:03.257Z,3.10
2024-05-09T15:35:30.144Z,3.00
2024-05-09T15:37:56.818Z,3.03
2024-05-09T15:40:35.539Z,2.93
2024-05-09T15:43:07.127Z,2.75
2024-05-09T15:45:34.568Z,2.20
2024-05-09T15:48:02.564Z,2.80
2024-05-09T15:50:36.938Z,2.70
2024-05-09T15:53:07.997Z,2.60
2024-05-09T15:55:35.557Z,2.60
2024-05-09T15:58:03.307Z,2.70
2024-05-09T16:00:37.572Z,2.63
2024-05-09T16:03:08.566Z,2.67
2024-05-09T16:05:35.538Z,2.90
2024-05-09T16:08:02.617Z,2.65
2024-05-09T16:10:32.952Z,2.70
2024-05-09T16:13:01.555Z,2.40
2024-05-09T16:15:28.803Z,2.42
2024-05-09T16:17:56.220Z,2.57
2024-05-09T16:20:34.238Z,2.90
2024-05-09T16:23:06.467Z,3.10
2024-05-09T16:25:33.398Z,2.88
2024-05-09T16:28:00.293Z,2.70
2024-05-09T16:30:31.929Z,2.80
2024-05-09T16:33:02.450Z,2.85
2024-05-09T16:35:29.437Z,2.67
2024-05-09T16:37:56.181Z,2.85
2024-05-09T16:40:30.319Z,2.90
2024-05-09T16:43:04.648Z,3.00
2024-05-09T16:45:32.013Z,3.50
2024-05-09T16:47:59.956Z,3.28
2024-05-09T16:50:32.333Z,3.30
2024-05-09T16:53:01.124Z,3.00
2024-05-09T16:55:28.035Z,3.13
2024-05-09T16:57:55.626Z,3.20
2024-05-09T17:00:31.631Z,3.35
2024-05-09T17:03:06.807Z,2.95
2024-05-09T17:05:34.311Z,2.70
2024-05-09T17:08:01.473Z,2.97
2024-05-09T17:10:32.889Z,3.47
2024-05-09T17:13:02.920Z,3.40
2024-05-09T17:15:30.088Z,3.20
2024-05-09T17:17:57.051Z,3.33
2024-05-09T17:20:31.353Z,3.00
2024-05-09T17:23:02.284Z,3.05
2024-05-09T17:25:29.380Z,3.00
2024-05-09T17:27:56.647Z,3.08
2024-05-09T17:30:31.570Z,2.60
2024-05-09T17:33:03.338Z,2.80
2024-05-09T17:35:30.109Z,2.90
2024-05-09T17:37:58.134Z,3.15
2024-05-09T17:40:31.133Z,2.90
2024-05-09T17:43:01.781Z,3.53
2024-05-09T17:45:28.558Z,3.13
2024-05-09T17:47:55.567Z,3.20
2024-05-09T17:50:30.225Z,3.47
2024-05-09T17:53:01.329Z,2.85
2024-05-09T17:55:28.735Z,2.65
2024-05-09T17:57:55.614Z,2.93
2024-05-09T18:00:32.867Z,2.90
2024-05-09T18:03:05.486Z,2.90
2024-05-09T18:05:32.621Z,3.42
2024-05-09T18:07:59.458Z,2.85
2024-05-09T18:10:33.156Z,2.97
2024-05-09T18:13:04.120Z,2.88
2024-05-09T18:15:30.906Z,2.85
2024-05-09T18:17:58.108Z,2.85
2024-05-09T18:20:33.166Z,3.05
2024-05-09T18:23:08.133Z,2.80
2024-05-09T18:25:34.953Z,3.22
2024-05-09T18:28:03.039Z,3.03
2024-05-09T18:30:34.778Z,3.03
2024-05-09T18:33:04.945Z,3.13
2024-05-09T18:35:32.661Z,2.80
2024-05-09T18:37:59.382Z,3.15
2024-05-09T18:40:33.645Z,3.15
2024-05-09T18:43:04.891Z,3.20
2024-05-09T18:45:32.668Z,4.00
2024-05-09T18:47:59.508Z,3.90
2024-05-09T18:50:34.345Z,4.10
2024-05-09T18:53:08.771Z,4.22
2024-05-09T18:55:35.753Z,3.97
2024-05-09T18:58:03.671Z,4.18
2024-05-09T19:00:35.918Z,5.50
2024-05-09T19:03:09.690Z,5.15
2024-05-09T19:05:38.863Z,4.63
2024-05-09T19:08:06.370Z,4.90
2024-05-09T19:10:35.040Z,5.15
2024-05-09T19:13:08.035Z,4.40
2024-05-09T19:15:38.601Z,5.10
2024-05-09T19:18:06.180Z,5.80
2024-05-09T19:20:35.243Z,5.35
2024-05-09T19:23:03.629Z,4.57
2024-05-09T19:25:30.424Z,5.07
2024-05-09T19:27:57.120Z,4.63
2024-05-09T19:30:32.883Z,4.90
2024-05-09T19:33:05.740Z,4.90
2024-05-09T19:35:32.643Z,4.70
2024-05-09T19:37:59.477Z,5.00
2024-05-09T19:40:31.318Z,4.63
2024-05-09T19:43:00.492Z,4.40
2024-05-09T19:45:27.164Z,4.50
2024-05-09T19:47:53.922Z,4.45
2024-05-09T19:50:27.123Z,4.70
2024-05-09T19:53:03.076Z,5.28
2024-05-09T19:55:29.824Z,4.50
2024-05-09T19:57:56.948Z,5.25
2024-05-09T20:00:32.328Z,5.05
2024-05-09T20:03:02.551Z,5.20
2024-05-09T20:05:31.217Z,4.22
2024-05-09T20:07:58.203Z,5.22
2024-05-09T20:10:31.105Z,5.10
2024-05-09T20:12:59.667Z,5.22
2024-05-09T20:15:26.463Z,4.67
2024-05-09T20:17:53.844Z,4.35
2024-05-09T20:20:28.693Z,4.47
2024-05-09T20:23:03.258Z,4.40
2024-05-09T20:25:29.974Z,4.40
2024-05-09T20:27:56.674Z,4.70
2024-05-09T20:30:30.565Z,4.20
2024-05-09T20:32:59.980Z,4.40
2024-05-09T20:35:26.950Z,5.15
2024-05-09T20:37:53.645Z,5.00
2024-05-09T20:40:28.360Z,4.60
2024-05-09T20:42:59.143Z,4.57
2024-05-09T20:45:25.863Z,4.68
2024-05-09T20:47:52.760Z,4.63
2024-05-09T20:50:28.196Z,4.68
2024-05-09T20:53:02.682Z,4.50
2024-05-09T20:55:30.128Z,4.60
2024-05-09T20:58:00.363Z,4.30
2024-05-09T21:00:35.173Z,4.40
2024-05-09T21:03:07.350Z,4.40
2024-05-09T21:05:35.195Z,4.73
2024-05-09T21:08:02.321Z,4.05
2024-05-09T21:10:32.823Z,4.13
2024-05-09T21:13:00.939Z,4.05
2024-05-09T21:15:27.740Z,4.40
2024-05-09T21:17:54.472Z,4.40
2024-05-09T21:20:28.122Z,4.60
2024-05-09T21:22:58.069Z,4.75
2024-05-09T21:25:24.761Z,4.20
2024-05-09T21:27:51.566Z,4.40
2024-05-09T21:30:27.319Z,4.43
2024-05-09T21:32:59.929Z,4.05
2024-05-09T21:35:26.642Z,3.92
2024-05-09T21:37:53.320Z,4.53
2024-05-09T21:40:27.349Z,4.25
2024-05-09T21:43:01.208Z,4.83
2024-05-09T21:45:27.996Z,4.90
2024-05-09T21:47:55.136Z,5.22
2024-05-09T21:50:28.199Z,4.82
2024-05-09T21:53:02.020Z,5.82
2024-05-09T21:55:28.638Z,5.77
2024-05-09T21:57:56.633Z,5.65
2024-05-09T22:00:29.234Z,5.38
2024-05-09T22:03:02.608Z,4.90
2024-05-09T22:05:29.492Z,6.68
2024-05-09T22:07:56.984Z,4.40
2024-05-09T22:10:30.531Z,5.00
2024-05-09T22:13:00.880Z,5.30
2024-05-09T22:15:27.604Z,4.93
2024-05-09T22:17:56.062Z,5.40
2024-05-09T22:20:29.422Z,5.27
2024-05-09T22:23:04.247Z,4.72
2024-05-09T22:25:32.094Z,5.00
2024-05-09T22:27:59.483Z,4.32
2024-05-09T22:30:33.730Z,5.30
2024-05-09T22:33:04.719Z,4.20
2024-05-09T22:35:31.444Z,4.18
2024-05-09T22:37:57.998Z,3.67
2024-05-09T22:40:37.427Z,3.95
2024-05-09T22:43:12.309Z,3.35
2024-05-09T22:45:39.235Z,3.20
2024-05-09T22:48:06.741Z,3.47
2024-05-09T22:50:33.928Z,3.25
2024-05-09T22:53:00.981Z,3.10
2024-05-09T22:55:27.714Z,3.30
2024-05-09T22:57:54.364Z,3.33
2024-05-09T23:00:29.285Z,2.70
2024-05-09T23:03:02.372Z,2.90
2024-05-09T23:05:29.700Z,2.70
2024-05-09T23:07:56.481Z,3.13
2024-05-09T23:10:31.089Z,2.70
2024-05-09T23:13:02.612Z,2.40
2024-05-09T23:15:29.504Z,2.60
2024-05-09T23:17:57.356Z,2.70
2024-05-09T23:22:53.909Z,2.80
2024-05-09T23:25:20.609Z,2.60
2024-05-09T23:27:47.364Z,3.00
2024-05-09T23:30:25.395Z,2.30
2024-05-09T23:32:55.968Z,3.05
2024-05-09T23:35:22.761Z,2.73
2024-05-09T23:37:49.360Z,2.38
2024-05-09T23:40:19.007Z,2.53
2024-05-09T23:42:49.342Z,2.60
2024-05-09T23:45:16.015Z,2.70
2024-05-09T23:47:42.684Z,2.40
2024-05-09T23:50:16.554Z,2.70
2024-05-09T23:52:47.380Z,2.60
2024-05-09T23:55:14.171Z,2.60
2024-05-09T23:57:41.146Z,2.40
